Other Surface Observations
Issued by NWS Great Falls, MT

Home | Current Version | Previous Version | Text Only | Print | Product List | Glossary On
Versions: 1 2 3 4 5 6 7 8 9 10 11 12 13 14 15 16 17 18 19 20 21 22 23 24 25 26 27 28 29 30 31 32 33 34 35 36 37 38 39 40 41 42 43 44 45 46 47 48 49 50
000
SXUS55 KTFX 311551
OSOTFX
AREA AWOS OBSERVATIONS
NATIONAL WEATHER SERVICE GREAT FALLS MT
0950 AM MDT THU JUL 31 2014

METAR KPWD 311545Z AUTO 18003KT 10SM 22/14 A3008 RMK PLENTYWOOD
METAR KPO1 311545Z AUTO 24008KT 26/11 A3005 RMK POPLAR
METAR K1S3 311545Z AUTO 11005KT 10SM 27/06 A3010 RMK FORSYTH
METAR K6S0 311545Z AUTO 10SM 25/06 A3020 RMK BIG TIMBER
METAR K79S 311545Z AUTO 20009KT 10SM 27/07 A3010 RMK FORT BENTON
METAR KEKS 311545Z AUTO 00000KT 10SM 21/06 A3036 RMK ENNIS
METAR K38S 311545Z AUTO 00000KT 10SM 19/09 A3031 RMK DEER LODGE
METAR K3U3 311545Z AUTO 09004KT 22/08 A3027 RMK ANACONDA
METAR K6S5 311545Z AUTO 00000KT 10SM 21/10 A3020 RMK HAMILTON
METAR KS59 311545Z AUTO 00000KT 10SM 21/08 A3014 RMK LIBBY



USA.gov is the U.S. government's official web portal to all federal, state and local government web resources and services.